Time;durP1;ratioP1;P1;durP2;ratioP2;P2;SDS_P1;SDS_P2;PMS_P1;PMS_P2;Temp;Humidity;BMP_temperature;BMP_pressure;BME280_temperature;BME280_humidity;BME280_pressure;Samples;Min_cycle;Max_cycle;Signal;HPM_P1;HPM_P2
2022/11/29 00:01:59;;;;;;;59.42;25.00;;;8.10;99.90;;;;;;5058691;28;20032;-84
2022/11/29 00:04:24;;;;;;;58.83;23.60;;;8.10;99.90;;;;;;5076688;28;20033;-95
2022/11/29 00:06:50;;;;;;;60.22;22.88;;;8.10;99.90;;;;;;5061580;28;20028;-85
2022/11/29 00:09:17;;;;;;;51.95;20.17;;;8.10;99.90;;;;;;5063679;28;20476;-90
2022/11/29 00:14:27;;;;;;;69.97;27.27;;;8.00;99.90;;;;;;5062298;28;20431;-84
2022/11/29 00:17:00;;;;;;;57.70;21.40;;;8.10;99.90;;;;;;5050104;28;20114;-84
2022/11/29 00:19:26;;;;;;;53.78;21.55;;;8.10;99.90;;;;;;5041236;28;20044;-85
2022/11/29 00:21:52;;;;;;;46.75;18.88;;;8.10;99.90;;;;;;5062704;28;20491;-85
2022/11/29 00:24:18;;;;;;;46.10;18.15;;;8.10;99.90;;;;;;5063145;28;20115;-85
2022/11/29 00:26:44;;;;;;;43.38;16.50;;;8.10;99.90;;;;;;5062619;28;20052;-85
2022/11/29 00:29:11;;;;;;;36.30;14.55;;;8.00;99.90;;;;;;5048895;28;20071;-88
2022/11/29 00:31:38;;;;;;;43.95;17.42;;;8.10;99.90;;;;;;5072538;28;20021;-85
2022/11/29 00:34:07;;;;;;;49.78;18.58;;;8.10;99.90;;;;;;5062241;28;20021;-83
2022/11/29 00:36:34;;;;;;;42.72;15.02;;;8.00;99.90;;;;;;5043581;28;20123;-87
2022/11/29 00:39:01;;;;;;;56.65;20.50;;;8.00;99.90;;;;;;5070327;28;20029;-85
2022/11/29 00:41:26;;;;;;;70.00;26.13;;;8.00;99.90;;;;;;5064225;28;20024;-85
2022/11/29 00:43:52;;;;;;;55.38;21.52;;;8.00;99.90;;;;;;5049488;28;20124;-89
2022/11/29 00:46:18;;;;;;;50.45;20.20;;;8.00;99.90;;;;;;5057848;28;20051;-85
2022/11/29 00:48:44;;;;;;;45.47;17.52;;;8.00;99.90;;;;;;5044541;28;20036;-84
2022/11/29 00:51:09;;;;;;;39.25;15.30;;;8.00;99.90;;;;;;5065653;28;20115;-84
2022/11/29 00:53:35;;;;;;;37.60;13.95;;;8.00;99.90;;;;;;5065002;28;20032;-85
2022/11/29 00:56:02;;;;;;;39.50;16.13;;;8.00;99.90;;;;;;5065223;28;20032;-93
2022/11/29 00:58:27;;;;;;;36.90;14.77;;;8.00;99.90;;;;;;5044527;28;20025;-88
2022/11/29 01:00:54;;;;;;;38.78;14.68;;;8.00;99.90;;;;;;5062725;28;20025;-89
2022/11/29 01:03:20;;;;;;;41.90;15.73;;;8.00;99.90;;;;;;5047121;28;20072;-88
2022/11/29 01:05:46;;;;;;;46.70;15.35;;;8.00;99.90;;;;;;5063986;28;20051;-86
2022/11/29 01:08:13;;;;;;;36.97;13.48;;;8.00;99.90;;;;;;5070780;28;20388;-91
2022/11/29 01:10:39;;;;;;;40.50;14.18;;;8.00;99.90;;;;;;5057373;28;20021;-84
2022/11/29 01:13:05;;;;;;;35.47;13.10;;;8.00;99.90;;;;;;5059374;28;20032;-88
2022/11/29 01:15:30;;;;;;;41.28;14.25;;;8.00;99.90;;;;;;5060309;28;20028;-85
2022/11/29 01:17:56;;;;;;;38.28;13.73;;;8.00;99.90;;;;;;5063565;28;20365;-84
2022/11/29 01:20:22;;;;;;;43.90;14.82;;;8.00;99.90;;;;;;5046736;28;20476;-84
2022/11/29 01:22:48;;;;;;;40.70;14.57;;;8.00;99.90;;;;;;5081549;28;20066;-85
2022/11/29 01:25:14;;;;;;;42.38;15.80;;;8.00;99.90;;;;;;5065399;28;20547;-85
2022/11/29 01:27:40;;;;;;;46.10;15.55;;;8.00;99.90;;;;;;5063130;28;20039;-85
2022/11/29 01:30:08;;;;;;;41.40;14.32;;;8.00;99.90;;;;;;5048787;28;20031;-83
2022/11/29 01:32:35;;;;;;;42.15;13.38;;;8.00;99.90;;;;;;5051263;28;20090;-84
2022/11/29 01:35:00;;;;;;;46.00;14.77;;;8.00;99.90;;;;;;5053819;28;20074;-87
2022/11/29 01:37:29;;;;;;;38.03;13.85;;;8.00;99.90;;;;;;5047606;28;20058;-85
2022/11/29 01:39:55;;;;;;;39.13;13.15;;;8.00;99.90;;;;;;5066742;28;20021;-86
2022/11/29 01:42:21;;;;;;;46.33;15.43;;;8.00;99.90;;;;;;5048177;28;20543;-85
2022/11/29 01:45:17;;;;;;;42.72;14.82;;;7.90;99.90;;;;;;5051942;28;20366;-85
2022/11/29 01:47:44;;;;;;;53.28;16.77;;;7.90;99.90;;;;;;5049652;28;20025;-83
2022/11/29 01:50:10;;;;;;;35.83;13.30;;;7.90;99.90;;;;;;5053801;28;20034;-84
2022/11/29 01:52:36;;;;;;;42.53;14.23;;;7.90;99.90;;;;;;5068340;28;20387;-85
2022/11/29 01:55:06;;;;;;;45.83;15.00;;;7.90;99.90;;;;;;5068820;28;20572;-85
2022/11/29 01:57:34;;;;;;;36.40;12.20;;;8.00;99.90;;;;;;5054203;28;20048;-86
2022/11/29 02:00:26;;;;;;;35.20;12.10;;;7.90;99.90;;;;;;5059778;28;20040;-85
2022/11/29 02:02:57;;;;;;;44.88;15.43;;;7.90;99.90;;;;;;5065422;28;20412;-86
2022/11/29 02:05:25;;;;;;;42.10;14.23;;;7.90;99.90;;;;;;5048688;28;20024;-84
2022/11/29 02:07:54;;;;;;;45.00;14.35;;;7.90;99.90;;;;;;5066451;28;20033;-91
2022/11/29 02:10:30;;;;;;;38.60;12.30;;;7.80;99.90;;;;;;5051932;28;20038;-85
2022/11/29 02:13:34;;;;;;;48.65;14.85;;;7.80;99.90;;;;;;5046929;28;20029;-86
2022/11/29 02:16:23;;;;;;;44.42;13.68;;;7.80;99.90;;;;;;5042596;28;20040;-83
2022/11/29 02:19:21;;;;;;;44.70;14.60;;;7.80;99.90;;;;;;5011816;28;20148;-83
2022/11/29 02:22:09;;;;;;;49.13;15.57;;;7.80;99.90;;;;;;5011958;28;20489;-85
2022/11/29 02:24:40;;;;;;;41.53;13.07;;;7.80;99.90;;;;;;5011657;28;20045;-84
2022/11/29 02:27:15;;;;;;;47.15;14.07;;;7.80;99.90;;;;;;5011198;28;20025;-84
2022/11/29 02:30:18;;;;;;;48.47;14.48;;;7.80;99.90;;;;;;5011345;28;20034;-91
2022/11/29 02:33:36;;;;;;;43.83;13.02;;;7.80;99.90;;;;;;4994804;28;20025;-88
2022/11/29 02:36:04;;;;;;;69.55;20.75;;;7.80;99.90;;;;;;4933746;29;20530;-86
2022/11/29 02:38:45;;;;;;;66.30;20.58;;;7.80;99.90;;;;;;4930551;29;20048;-86
2022/11/29 02:41:25;;;;;;;64.25;20.63;;;7.80;99.90;;;;;;4915641;29;20028;-85
2022/11/29 02:44:25;;;;;;;77.38;23.88;;;7.80;99.90;;;;;;4930026;29;20415;-85
2022/11/29 02:47:15;;;;;;;69.57;20.42;;;7.70;99.90;;;;;;4930051;29;20038;-95
2022/11/29 02:50:12;;;;;;;50.47;16.55;;;7.70;99.90;;;;;;4914745;29;20032;-95
2022/11/29 02:53:00;;;;;;;47.95;14.88;;;7.80;99.90;;;;;;4914426;29;20039;-85
2022/11/29 02:55:54;;;;;;;50.45;14.57;;;7.80;99.90;;;;;;4928981;28;20394;-85
2022/11/29 02:58:42;;;;;;;48.50;13.88;;;7.70;99.90;;;;;;4983929;28;20069;-84
2022/11/29 03:01:28;;;;;;;45.65;13.32;;;7.70;99.90;;;;;;4972007;28;20463;-94
2022/11/29 03:04:06;;;;;;;37.88;11.05;;;7.80;99.90;;;;;;4972133;28;20133;-93
2022/11/29 03:06:57;;;;;;;61.75;18.45;;;7.70;99.90;;;;;;4987543;28;20031;-85
2022/11/29 03:09:38;;;;;;;55.17;16.90;;;7.70;99.90;;;;;;5002432;28;20400;-85
2022/11/29 03:12:25;;;;;;;45.92;13.52;;;7.70;99.90;;;;;;5062782;28;20033;-88
2022/11/29 03:15:08;;;;;;;40.78;11.73;;;7.70;99.90;;;;;;5064428;28;20036;-85
2022/11/29 03:17:59;;;;;;;41.30;13.52;;;7.70;99.90;;;;;;5051847;28;20024;-86
2022/11/29 03:20:56;;;;;;;40.70;11.95;;;7.70;99.90;;;;;;5062355;28;20021;-85
2022/11/29 03:23:30;;;;;;;46.65;11.75;;;7.70;99.90;;;;;;5047231;28;20044;-86
2022/11/29 03:26:03;;;;;;;39.83;10.45;;;7.70;99.90;;;;;;5048746;28;20477;-85
2022/11/29 03:28:52;;;;;;;36.30;10.95;;;7.70;99.90;;;;;;5064809;28;20028;-85
2022/11/29 03:31:34;;;;;;;68.18;20.98;;;7.70;99.90;;;;;;5049954;28;20025;-94
2022/11/29 03:34:24;;;;;;;56.03;15.43;;;7.60;99.90;;;;;;5060720;28;20123;-87
2022/11/29 03:37:13;;;;;;;54.92;14.82;;;7.60;99.90;;;;;;5045865;28;20032;-87
2022/11/29 03:39:55;;;;;;;37.97;11.50;;;7.60;99.90;;;;;;5043426;28;20388;-84
2022/11/29 03:42:29;;;;;;;37.58;10.23;;;7.60;99.90;;;;;;5046238;28;20025;-85
2022/11/29 03:45:21;;;;;;;42.90;10.98;;;7.60;99.90;;;;;;5046502;28;20097;-85
2022/11/29 03:48:10;;;;;;;36.25;9.80;;;7.60;99.90;;;;;;5064953;28;20240;-85
2022/11/29 03:50:56;;;;;;;31.23;8.75;;;7.60;99.90;;;;;;5058324;28;20025;-85
2022/11/29 03:53:32;;;;;;;36.55;8.73;;;7.60;99.90;;;;;;5075919;28;20040;-85
2022/11/29 03:55:59;;;;;;;36.00;10.02;;;7.60;99.90;;;;;;5044911;28;20060;-86
2022/11/29 03:59:04;;;;;;;34.50;9.05;;;7.60;99.90;;;;;;5062850;28;20021;-84
2022/11/29 04:02:07;;;;;;;34.85;9.27;;;7.60;99.90;;;;;;5072787;28;20453;-86
2022/11/29 04:04:51;;;;;;;35.45;8.95;;;7.60;99.90;;;;;;5065619;28;20415;-86
2022/11/29 04:07:32;;;;;;;28.73;8.25;;;7.70;99.90;;;;;;5063360;28;20021;-84
2022/11/29 04:10:29;;;;;;;35.05;10.43;;;7.60;99.90;;;;;;5066433;28;20035;-85
2022/11/29 04:13:16;;;;;;;33.70;9.43;;;7.60;99.90;;;;;;5062500;28;20024;-85
2022/11/29 04:15:57;;;;;;;30.98;8.93;;;7.60;99.90;;;;;;5062218;28;20098;-83
2022/11/29 04:18:35;;;;;;;34.60;8.27;;;7.60;99.90;;;;;;5058958;28;20101;-85
2022/11/29 04:21:30;;;;;;;29.83;7.50;;;7.70;99.90;;;;;;5047022;28;20122;-85
2022/11/29 04:24:17;;;;;;;37.22;10.85;;;7.60;99.90;;;;;;5062717;28;20051;-85
2022/11/29 04:27:08;;;;;;;37.85;10.45;;;7.60;99.90;;;;;;5061937;28;20029;-94
2022/11/29 04:30:03;;;;;;;34.53;9.80;;;7.60;99.90;;;;;;5076873;28;20028;-83
2022/11/29 04:32:40;;;;;;;30.80;8.18;;;7.70;99.90;;;;;;5064257;28;20032;-96
2022/11/29 04:35:44;;;;;;;33.55;8.00;;;7.60;99.90;;;;;;5061079;28;20029;-86
2022/11/29 04:38:32;;;;;;;46.25;11.27;;;7.60;99.90;;;;;;5041512;28;20021;-88
2022/11/29 04:41:46;;;;;;;40.95;11.07;;;7.50;99.90;;;;;;5060384;28;20027;-85
2022/11/29 04:44:30;;;;;;;50.95;13.25;;;7.50;99.90;;;;;;5037192;28;20052;-89
2022/11/29 04:47:28;;;;;;;54.53;15.90;;;7.50;99.90;;;;;;5059461;28;20104;-84
2022/11/29 04:50:19;;;;;;;48.65;13.45;;;7.40;99.90;;;;;;5061529;28;20064;-86
2022/11/29 04:52:44;;;;;;;39.45;11.88;;;7.40;99.90;;;;;;5071421;28;20039;-85
2022/11/29 04:55:31;;;;;;;46.95;13.35;;;7.50;99.90;;;;;;5065543;28;20028;-85
2022/11/29 04:58:12;;;;;;;42.90;11.68;;;7.40;99.90;;;;;;5064951;28;20033;-85
2022/11/29 05:01:02;;;;;;;41.95;10.27;;;7.40;99.90;;;;;;5064371;28;20017;-85
2022/11/29 05:03:40;;;;;;;38.47;10.40;;;7.50;99.90;;;;;;5067814;28;20051;-87
2022/11/29 05:06:24;;;;;;;36.60;9.85;;;7.40;99.90;;;;;;5058184;28;20089;-85
2022/11/29 05:09:03;;;;;;;34.78;9.48;;;7.40;99.90;;;;;;5063650;28;20397;-85
2022/11/29 05:11:39;;;;;;;37.20;9.87;;;7.40;99.90;;;;;;5068438;28;20028;-96
2022/11/29 05:14:29;;;;;;;30.90;8.63;;;7.50;99.90;;;;;;5047641;28;20793;-84
2022/11/29 05:17:41;;;;;;;36.13;8.70;;;7.50;99.90;;;;;;5067814;28;20051;-85
2022/11/29 05:20:27;;;;;;;34.22;8.57;;;7.50;99.90;;;;;;4992463;28;20042;-93
2022/11/29 05:23:10;;;;;;;34.05;7.65;;;7.50;99.90;;;;;;4973539;28;20173;-85
2022/11/29 05:25:43;;;;;;;33.25;9.35;;;7.50;99.90;;;;;;4971040;28;20042;-83
2022/11/29 05:28:35;;;;;;;32.03;8.43;;;7.50;99.90;;;;;;4984968;28;20038;-96
2022/11/29 05:31:40;;;;;;;34.55;8.63;;;7.50;99.90;;;;;;4973743;28;20026;-92
2022/11/29 05:34:23;;;;;;;35.05;9.02;;;7.50;99.90;;;;;;4988397;28;20160;-85
2022/11/29 05:37:19;;;;;;;34.38;7.80;;;7.50;99.90;;;;;;4988037;28;20038;-85
2022/11/29 05:40:00;;;;;;;32.00;8.20;;;7.50;99.90;;;;;;4988576;28;20104;-83
2022/11/29 05:42:35;;;;;;;32.58;8.55;;;7.60;99.90;;;;;;4989223;28;20416;-86
2022/11/29 05:45:13;;;;;;;34.03;9.50;;;7.50;99.90;;;;;;4975645;28;20041;-85
2022/11/29 05:47:55;;;;;;;32.55;8.63;;;7.50;99.90;;;;;;4986972;28;20045;-84
2022/11/29 05:50:54;;;;;;;33.95;9.35;;;7.50;99.90;;;;;;4973046;28;20034;-84
2022/11/29 05:53:31;;;;;;;43.03;9.70;;;7.50;99.90;;;;;;4970200;28;20040;-86
2022/11/29 05:56:22;;;;;;;37.83;10.20;;;7.50;99.90;;;;;;5007235;28;21607;-84
2022/11/29 05:58:57;;;;;;;46.92;10.38;;;7.50;99.90;;;;;;5034279;28;20453;-84
2022/11/29 06:01:27;;;;;;;36.67;9.30;;;7.50;99.90;;;;;;5033001;28;20061;-94
2022/11/29 06:04:01;;;;;;;37.30;9.13;;;7.50;99.90;;;;;;5010795;28;20068;-83
2022/11/29 06:06:44;;;;;;;40.67;10.02;;;7.50;99.90;;;;;;5028719;28;20029;-96
2022/11/29 06:09:20;;;;;;;43.30;10.82;;;7.50;99.90;;;;;;5013077;28;20039;-88
2022/11/29 06:11:53;;;;;;;43.08;11.30;;;7.50;99.90;;;;;;5013375;28;21188;-94
2022/11/29 06:14:40;;;;;;;35.20;9.88;;;7.50;99.90;;;;;;5030684;28;20029;-87
2022/11/29 06:17:42;;;;;;;40.22;10.63;;;7.60;99.90;;;;;;5012227;28;20120;-85
2022/11/29 06:23:14;;;;;;;36.53;8.02;;;7.60;99.90;;;;;;5060466;28;20399;-87
2022/11/29 06:26:15;;;;;;;34.97;8.43;;;7.60;99.90;;;;;;5039799;28;20123;-85
2022/11/29 06:29:17;;;;;;;32.45;7.70;;;7.60;99.90;;;;;;5040230;28;20106;-84
2022/11/29 06:31:49;;;;;;;33.55;7.75;;;7.60;99.90;;;;;;5066779;28;20030;-96
2022/11/29 06:34:37;;;;;;;34.05;8.98;;;7.60;99.90;;;;;;5051097;28;20226;-84
2022/11/29 06:37:22;;;;;;;33.15;8.10;;;7.60;99.90;;;;;;5042734;28;20033;-90
2022/11/29 06:39:48;;;;;;;32.85;8.82;;;7.60;99.90;;;;;;5049110;28;20048;-86
2022/11/29 06:42:14;;;;;;;36.92;8.77;;;7.60;99.90;;;;;;5035247;28;20025;-85
2022/11/29 06:44:40;;;;;;;37.90;9.10;;;7.60;99.90;;;;;;5050320;28;20037;-88
2022/11/29 06:47:26;;;;;;;36.45;8.23;;;7.60;99.90;;;;;;5049803;28;20267;-93
2022/11/29 06:50:13;;;;;;;33.83;7.93;;;7.60;99.90;;;;;;5044914;28;20438;-92
2022/11/29 06:52:48;;;;;;;31.50;7.72;;;7.60;99.90;;;;;;5046946;28;20074;-85
2022/11/29 06:55:25;;;;;;;34.83;7.50;;;7.60;99.90;;;;;;5063843;28;20396;-91
2022/11/29 06:58:01;;;;;;;32.33;9.02;;;7.60;99.90;;;;;;5029406;28;20419;-90
2022/11/29 07:00:41;;;;;;;36.88;8.20;;;7.60;99.90;;;;;;5046571;28;20025;-89
2022/11/29 07:03:16;;;;;;;;;;;7.70;99.90;;;;;;5050450;28;20040;-91
2022/11/29 07:05:42;;;;;;;51.47;13.32;;;7.60;99.90;;;;;;5062311;28;19959;-90
2022/11/29 07:08:20;;;;;;;45.90;11.15;;;7.60;99.90;;;;;;5047299;28;20064;-93
2022/11/29 07:10:49;;;;;;;46.03;10.68;;;7.60;99.90;;;;;;5030327;28;20472;-83
2022/11/29 07:13:16;;;;;;;45.70;11.23;;;7.60;99.90;;;;;;4966716;28;20095;-82
2022/11/29 07:16:20;;;;;;;45.40;10.40;;;7.60;99.90;;;;;;5016997;28;20716;-89
2022/11/29 07:19:10;;;;;;;36.42;9.05;;;7.60;99.90;;;;;;5014943;28;20040;-83
2022/11/29 07:22:07;;;;;;;38.08;8.98;;;7.60;99.90;;;;;;4997052;28;20215;-85
2022/11/29 07:25:05;;;;;;;36.08;8.02;;;7.60;99.90;;;;;;5013091;28;20081;-83
2022/11/29 07:27:49;;;;;;;56.10;13.38;;;7.70;99.90;;;;;;5012141;28;20045;-85
2022/11/29 07:30:19;;;;;;;48.20;11.73;;;7.60;99.90;;;;;;5016357;28;20121;-85
2022/11/29 07:32:45;;;;;;;44.55;10.55;;;7.70;99.90;;;;;;5012171;28;20083;-84
2022/11/29 07:35:29;;;;;;;37.50;9.65;;;7.70;99.90;;;;;;4994422;28;20567;-84
2022/11/29 07:38:07;;;;;;;36.38;8.27;;;7.70;99.90;;;;;;5013112;28;20073;-83
2022/11/29 07:40:55;;;;;;;43.67;9.88;;;7.70;99.90;;;;;;5012858;28;20490;-83
2022/11/29 07:43:35;;;;;;;41.03;9.50;;;7.70;99.90;;;;;;4994636;28;20049;-82
2022/11/29 07:46:00;;;;;;;40.47;10.40;;;7.70;99.90;;;;;;5002808;28;20389;-83
2022/11/29 07:48:26;;;;;;;46.20;10.00;;;7.70;99.90;;;;;;5004224;28;20045;-84
2022/11/29 07:50:53;;;;;;;42.40;10.77;;;7.70;99.90;;;;;;5024556;28;20044;-84
2022/11/29 07:53:21;;;;;;;43.60;10.35;;;7.70;99.90;;;;;;5021087;28;20026;-83
2022/11/29 07:55:47;;;;;;;55.08;13.90;;;7.70;99.90;;;;;;5030704;28;20036;-84
2022/11/29 07:58:15;;;;;;;43.95;10.30;;;7.80;99.90;;;;;;5008060;28;20621;-83
2022/11/29 08:00:41;;;;;;;55.35;13.13;;;7.80;99.90;;;;;;5006872;28;20049;-84
2022/11/29 08:03:08;;;;;;;67.40;16.67;;;7.70;99.90;;;;;;5024461;28;20041;-84
2022/11/29 08:05:34;;;;;;;76.82;21.33;;;7.70;99.90;;;;;;5007361;28;20061;-84
2022/11/29 08:08:00;;;;;;;77.30;20.73;;;7.70;99.90;;;;;;5025867;28;20037;-88
2022/11/29 08:10:26;;;;;;;75.57;18.73;;;7.70;99.90;;;;;;5002701;28;20029;-85
2022/11/29 08:12:51;;;;;;;83.47;21.58;;;7.80;99.90;;;;;;5024176;28;20057;-86
2022/11/29 08:15:19;;;;;;;89.35;24.17;;;7.70;99.90;;;;;;5043238;28;20179;-85
2022/11/29 08:17:45;;;;;;;80.40;22.30;;;7.70;99.90;;;;;;5043662;28;20031;-84
2022/11/29 08:20:13;;;;;;;84.20;21.52;;;7.70;99.90;;;;;;5027041;28;20392;-85
2022/11/29 08:22:38;;;;;;;90.40;25.23;;;7.70;99.90;;;;;;5026707;28;20131;-83
2022/11/29 08:25:06;;;;;;;70.70;19.42;;;7.70;99.90;;;;;;5043722;28;20096;-85
2022/11/29 08:27:32;;;;;;;74.55;20.42;;;7.70;99.90;;;;;;5041611;28;20182;-83
2022/11/29 08:29:58;;;;;;;63.22;17.77;;;7.80;99.90;;;;;;5043938;28;20033;-84
2022/11/29 08:32:25;;;;;;;76.07;19.58;;;7.70;99.90;;;;;;5044375;28;20036;-84
2022/11/29 08:34:50;;;;;;;76.88;20.88;;;7.80;99.90;;;;;;5028433;28;20078;-84
2022/11/29 08:37:16;;;;;;;60.97;16.65;;;7.80;99.90;;;;;;5042039;28;20029;-83
2022/11/29 08:39:42;;;;;;;53.47;14.43;;;7.80;99.90;;;;;;5033308;28;20039;-88
2022/11/29 08:42:08;;;;;;;75.50;20.00;;;7.80;99.90;;;;;;5039431;28;20056;-84
2022/11/29 08:44:33;;;;;;;79.95;21.48;;;7.80;99.90;;;;;;5049038;28;20065;-84
2022/11/29 08:50:02;;;;;;;73.93;22.75;;;7.80;99.90;;;;;;5045634;28;20036;-85
2022/11/29 08:55:15;;;;;;;61.80;17.98;;;7.70;99.90;;;;;;5042794;28;20036;-84
2022/11/29 08:57:41;;;;;;;64.13;18.42;;;7.80;99.90;;;;;;5045336;28;20103;-83
2022/11/29 09:00:07;;;;;;;57.15;15.48;;;7.80;99.90;;;;;;5042222;28;20181;-84
2022/11/29 09:02:34;;;;;;;69.03;20.98;;;7.80;99.90;;;;;;5049578;28;20033;-84
2022/11/29 09:05:00;;;;;;;54.97;16.88;;;7.80;99.90;;;;;;5051379;28;20033;-82
2022/11/29 09:07:25;;;;;;;52.40;15.38;;;7.80;99.90;;;;;;5054054;28;20036;-84
2022/11/29 09:09:51;;;;;;;51.35;16.02;;;7.80;99.90;;;;;;5028967;28;20021;-84
2022/11/29 09:12:17;;;;;;;61.47;18.00;;;7.70;99.90;;;;;;5027957;28;20401;-85
2022/11/29 09:14:42;;;;;;;51.00;16.08;;;7.70;99.90;;;;;;5022592;28;20029;-84
2022/11/29 09:17:08;;;;;;;63.50;17.52;;;7.80;99.90;;;;;;5021384;28;20061;-83
2022/11/29 09:19:33;;;;;;;54.88;16.42;;;7.80;99.90;;;;;;5022653;28;20041;-85
2022/11/29 09:21:59;;;;;;;65.00;17.75;;;7.90;99.90;;;;;;5003528;28;20061;-83
2022/11/29 09:24:25;;;;;;;50.97;15.15;;;7.80;99.90;;;;;;5013157;28;20041;-84
2022/11/29 09:26:50;;;;;;;51.17;16.35;;;7.90;99.90;;;;;;5026024;28;20048;-85
2022/11/29 09:29:16;;;;;;;45.13;14.63;;;7.90;99.90;;;;;;5022323;28;20048;-83
2022/11/29 09:31:45;;;;;;;52.47;16.17;;;7.90;99.90;;;;;;5021121;28;20397;-84
2022/11/29 09:34:15;;;;;;;57.15;18.65;;;7.90;99.90;;;;;;5023293;28;20033;-84
2022/11/29 09:36:44;;;;;;;59.92;17.88;;;7.80;99.90;;;;;;5031604;28;20025;-84
2022/11/29 09:39:13;;;;;;;57.65;17.45;;;7.90;99.90;;;;;;5009030;28;20028;-84
2022/11/29 09:42:04;;;;;;;58.22;17.73;;;7.90;99.90;;;;;;5013942;28;20443;-83
2022/11/29 09:45:02;;;;;;;56.42;17.27;;;7.80;99.90;;;;;;5015482;28;20045;-84
2022/11/29 09:47:46;;;;;;;61.47;18.73;;;7.80;99.90;;;;;;4999937;28;20030;-84
2022/11/29 09:50:50;;;;;;;60.10;18.67;;;7.80;99.90;;;;;;5024593;28;20033;-86
2022/11/29 09:53:34;;;;;;;74.85;21.33;;;7.90;99.90;;;;;;5010754;28;20474;-84
2022/11/29 09:56:27;;;;;;;65.68;20.13;;;7.90;99.90;;;;;;5026761;28;20040;-85
2022/11/29 09:58:57;;;;;;;74.45;21.35;;;7.90;99.90;;;;;;5013249;28;20179;-84
2022/11/29 10:01:47;;;;;;;71.68;20.40;;;7.90;99.90;;;;;;5026918;28;20025;-86
2022/11/29 10:04:23;;;;;;;69.53;21.50;;;7.90;99.90;;;;;;5037588;28;20044;-88
2022/11/29 10:07:16;;;;;;;60.78;17.85;;;8.00;99.90;;;;;;5030664;28;20150;-84
2022/11/29 10:09:48;;;;;;;61.45;20.33;;;8.00;99.90;;;;;;5027120;28;20098;-85
2022/11/29 10:12:36;;;;;;;59.80;18.83;;;8.00;99.90;;;;;;4997292;28;20555;-85
2022/11/29 10:15:16;;;;;;;65.05;19.48;;;8.00;99.90;;;;;;5028216;28;20537;-85
2022/11/29 10:18:03;;;;;;;57.15;17.75;;;8.00;99.90;;;;;;5011592;28;20034;-84
2022/11/29 10:20:33;;;;;;;51.70;15.55;;;8.00;99.90;;;;;;5022126;28;20045;-85
2022/11/29 10:23:21;;;;;;;51.85;17.02;;;8.00;99.90;;;;;;5018333;28;20119;-84
2022/11/29 10:25:50;;;;;;;45.85;14.18;;;7.90;99.90;;;;;;5028932;28;20041;-85
2022/11/29 10:28:21;;;;;;;37.08;11.60;;;7.90;99.90;;;;;;5031625;28;20111;-85
2022/11/29 10:30:48;;;;;;;35.25;12.05;;;8.00;99.90;;;;;;5016677;28;20037;-85
2022/11/29 10:33:28;;;;;;;53.80;15.93;;;8.00;99.90;;;;;;5011963;28;20044;-85
2022/11/29 10:36:03;;;;;;;44.17;14.40;;;8.00;99.90;;;;;;5010807;28;20060;-87
2022/11/29 10:38:28;;;;;;;37.75;11.82;;;8.00;99.90;;;;;;5013742;28;20037;-84
2022/11/29 10:41:04;;;;;;;46.35;14.23;;;8.10;99.90;;;;;;5026735;28;20041;-85
2022/11/29 10:43:30;;;;;;;50.53;15.73;;;8.10;99.90;;;;;;5025008;28;20073;-86
2022/11/29 10:45:57;;;;;;;42.75;14.07;;;8.10;99.90;;;;;;5010485;28;20061;-85
2022/11/29 10:48:30;;;;;;;39.60;11.85;;;8.20;99.90;;;;;;5027669;28;20589;-85
2022/11/29 10:50:56;;;;;;;43.70;14.43;;;8.20;99.90;;;;;;5033115;28;20076;-85
2022/11/29 10:53:25;;;;;;;45.65;16.75;;;8.20;99.90;;;;;;5009362;28;20037;-88
2022/11/29 10:56:19;;;;;;;51.95;14.43;;;8.20;99.90;;;;;;5008341;28;20040;-85
2022/11/29 10:59:04;;;;;;;42.85;13.45;;;8.10;99.90;;;;;;5036063;28;20029;-85
2022/11/29 11:01:37;;;;;;;41.58;12.02;;;8.10;99.90;;;;;;5009969;28;20021;-84
2022/11/29 11:04:06;;;;;;;31.15;10.57;;;8.10;99.90;;;;;;5021511;28;20500;-85
2022/11/29 11:06:55;;;;;;;29.63;10.13;;;8.20;99.90;;;;;;5041538;28;20040;-85
2022/11/29 11:09:47;;;;;;;29.37;9.03;;;8.10;99.90;;;;;;5027898;28;20088;-86
2022/11/29 11:12:13;;;;;;;44.92;15.48;;;8.20;99.90;;;;;;5030513;28;20056;-85
2022/11/29 11:14:39;;;;;;;40.38;13.68;;;8.10;99.90;;;;;;5029612;28;20025;-86
2022/11/29 11:17:20;;;;;;;31.20;10.95;;;8.10;99.90;;;;;;5024286;28;20025;-85
2022/11/29 11:20:07;;;;;;;32.35;10.25;;;8.10;99.90;;;;;;5011555;28;20029;-85
2022/11/29 11:22:38;;;;;;;27.58;9.82;;;8.20;99.90;;;;;;5034983;28;20174;-91
2022/11/29 11:25:24;;;;;;;31.52;10.38;;;8.20;99.90;;;;;;5025479;28;20350;-90
2022/11/29 11:27:50;;;;;;;34.40;12.70;;;8.20;99.90;;;;;;5013068;28;20167;-92
2022/11/29 11:30:24;;;;;;;37.28;12.05;;;8.20;99.90;;;;;;5010692;28;20097;-92
2022/11/29 11:33:05;;;;;;;34.38;12.80;;;8.20;99.90;;;;;;5007335;28;20030;-88
2022/11/29 11:35:31;;;;;;;37.25;12.50;;;8.20;99.90;;;;;;5022468;28;20036;-91
2022/11/29 11:37:57;;;;;;;38.35;12.82;;;8.20;99.90;;;;;;5022292;28;20025;-85
2022/11/29 11:40:28;;;;;;;35.63;12.40;;;8.20;99.90;;;;;;5016185;28;20033;-85
2022/11/29 11:42:57;;;;;;;43.28;13.98;;;8.10;99.90;;;;;;5022099;28;20041;-92
2022/11/29 11:45:32;;;;;;;35.78;12.30;;;8.20;99.90;;;;;;5023477;28;20041;-85
2022/11/29 11:48:09;;;;;;;39.03;13.73;;;8.20;99.90;;;;;;5027242;28;20466;-86
2022/11/29 11:50:44;;;;;;;40.75;14.27;;;8.30;99.90;;;;;;5013963;28;20036;-92
2022/11/29 11:53:23;;;;;;;31.05;12.05;;;8.20;99.90;;;;;;5007553;28;20030;-86
2022/11/29 11:56:00;;;;;;;39.47;13.15;;;8.30;99.90;;;;;;5028307;28;20398;-85
2022/11/29 11:58:33;;;;;;;33.10;12.82;;;8.30;99.90;;;;;;5039666;28;20075;-88
2022/11/29 12:01:23;;;;;;;35.50;11.77;;;8.30;99.90;;;;;;5015894;28;20029;-87
2022/11/29 12:04:01;;;;;;;;;;;8.40;99.90;;;;;;5006850;28;20060;-91
2022/11/29 12:06:49;;;;;;;32.35;12.32;;;8.20;99.90;;;;;;5021727;28;21674;-91
2022/11/29 12:09:24;;;;;;;33.03;11.82;;;8.30;99.90;;;;;;5026885;28;20040;-88
2022/11/29 12:11:59;;;;;;;35.40;11.52;;;8.30;99.90;;;;;;5024743;28;21103;-87
2022/11/29 12:14:36;;;;;;;29.33;10.45;;;8.40;99.90;;;;;;5029845;28;20033;-92
2022/11/29 12:17:12;;;;;;;27.92;9.45;;;8.50;99.90;;;;;;5028769;28;20025;-86
2022/11/29 12:19:51;;;;;;;26.50;9.52;;;8.50;99.90;;;;;;5036283;28;20083;-91
2022/11/29 12:22:23;;;;;;;35.20;11.45;;;8.50;99.90;;;;;;5006129;28;20041;-91
2022/11/29 12:25:00;;;;;;;27.80;10.30;;;8.60;99.90;;;;;;5014573;28;20069;-89
2022/11/29 12:27:26;;;;;;;26.80;10.45;;;8.50;99.90;;;;;;5029942;28;20026;-92
2022/11/29 12:29:52;;;;;;;29.30;10.68;;;8.50;99.90;;;;;;5037324;28;20512;-91
2022/11/29 12:32:20;;;;;;;37.95;12.73;;;8.50;99.90;;;;;;5029796;28;20131;-90
2022/11/29 12:34:55;;;;;;;29.58;11.27;;;8.40;99.90;;;;;;5003048;28;20999;-85
2022/11/29 12:37:29;;;;;;;28.45;12.77;;;8.40;99.90;;;;;;5011751;28;20467;-85
2022/11/29 12:40:09;;;;;;;23.95;9.63;;;8.40;99.90;;;;;;5023469;28;20034;-86
2022/11/29 12:42:59;;;;;;;27.13;10.57;;;8.40;99.90;;;;;;5007805;28;20033;-88
2022/11/29 12:45:37;;;;;;;31.52;11.50;;;8.40;99.90;;;;;;5009203;28;20284;-90
2022/11/29 12:48:31;;;;;;;31.85;12.20;;;8.40;99.90;;;;;;5010207;28;20037;-86
2022/11/29 12:51:14;;;;;;;23.77;10.18;;;8.40;99.90;;;;;;5026489;28;20087;-85
2022/11/29 12:54:13;;;;;;;24.42;10.30;;;8.40;99.90;;;;;;5029333;28;20497;-85
2022/11/29 12:57:04;;;;;;;15.82;7.28;;;8.40;99.90;;;;;;5012972;28;20381;-85
2022/11/29 12:59:51;;;;;;;23.42;10.30;;;8.40;99.90;;;;;;5007046;28;20371;-91
2022/11/29 13:02:42;;;;;;;27.30;11.32;;;8.40;99.90;;;;;;5027050;28;20409;-85
2022/11/29 13:05:25;;;;;;;27.35;11.90;;;8.40;99.90;;;;;;5025976;28;20065;-91
2022/11/29 13:07:58;;;;;;;35.67;14.55;;;8.40;99.90;;;;;;5021301;28;20095;-85
2022/11/29 13:11:10;;;;;;;31.20;11.90;;;8.40;99.90;;;;;;5023829;28;20037;-84
2022/11/29 13:13:43;;;;;;;27.10;10.20;;;8.40;99.90;;;;;;5009590;28;20033;-85
2022/11/29 13:16:38;;;;;;;27.67;11.05;;;8.40;99.90;;;;;;5026032;28;20021;-85
2022/11/29 13:19:08;;;;;;;25.90;11.00;;;8.40;99.90;;;;;;5027026;28;20100;-87
2022/11/29 13:22:06;;;;;;;23.08;9.93;;;8.50;99.90;;;;;;5010740;28;20049;-85
2022/11/29 13:24:43;;;;;;;24.65;10.27;;;8.50;99.90;;;;;;4995123;28;20232;-84
2022/11/29 13:27:16;;;;;;;31.77;13.35;;;8.50;99.90;;;;;;4973578;28;20084;-85
2022/11/29 13:29:42;;;;;;;25.08;11.23;;;8.50;99.90;;;;;;5009651;28;20414;-84
2022/11/29 13:32:48;;;;;;;25.70;12.05;;;8.50;99.90;;;;;;4992956;28;20100;-86
2022/11/29 13:35:14;;;;;;;26.90;11.73;;;8.50;99.90;;;;;;4972367;28;20045;-85
2022/11/29 13:37:50;;;;;;;34.60;14.35;;;8.60;99.90;;;;;;4975834;28;20053;-86
2022/11/29 13:40:33;;;;;;;34.53;15.20;;;8.60;99.90;;;;;;4990478;28;20063;-84
2022/11/29 13:43:10;;;;;;;35.20;15.05;;;8.60;99.90;;;;;;4988941;28;20032;-85
2022/11/29 13:45:51;;;;;;;28.58;13.75;;;8.60;99.90;;;;;;4989930;28;20046;-85